createdAt,value
2023-05-01T00:00:51.191Z,71
2023-05-01T00:01:57.466Z,71.5
2023-05-01T00:03:03.816Z,72
2023-05-01T00:04:10.010Z,71.5
2023-05-01T00:05:16.280Z,71.5
2023-05-01T00:06:22.613Z,71
2023-05-01T00:07:28.824Z,71.5
2023-05-01T00:08:35.099Z,71
2023-05-01T00:09:41.420Z,71
2023-05-01T00:10:47.667Z,72
2023-05-01T00:11:53.973Z,72
2023-05-01T00:13:00.188Z,72
2023-05-01T00:14:05.483Z,71
2023-05-01T00:15:11.776Z,71
2023-05-01T00:16:18.026Z,72
2023-05-01T00:17:24.291Z,71.5
2023-05-01T00:18:30.623Z,72
2023-05-01T00:19:36.858Z,72
2023-05-01T00:20:43.123Z,71.5
2023-05-01T00:21:49.387Z,72
2023-05-01T00:22:55.642Z,71.5
2023-05-01T00:24:01.918Z,71.5
2023-05-01T00:25:08.182Z,71.5
2023-05-01T00:26:14.527Z,71
2023-05-01T00:27:20.742Z,71
2023-05-01T00:28:26.053Z,70.5
2023-05-01T00:29:32.335Z,70.5
2023-05-01T00:30:38.559Z,71
2023-05-01T00:31:44.882Z,71.5
2023-05-01T00:32:51.165Z,72
2023-05-01T00:33:57.392Z,71.5
2023-05-01T00:35:03.653Z,70.5
2023-05-01T00:36:09.947Z,71.5
2023-05-01T00:37:16.215Z,71.5
2023-05-01T00:38:22.510Z,72
2023-05-01T00:39:28.741Z,71.5
2023-05-01T00:40:35.011Z,72
2023-05-01T00:41:41.293Z,72.5
2023-05-01T00:42:47.571Z,71.5
2023-05-01T00:43:52.851Z,72
2023-05-01T00:44:59.122Z,71.5
2023-05-01T00:46:05.417Z,71.5
2023-05-01T00:47:11.665Z,72
2023-05-01T00:48:17.934Z,73
2023-05-01T00:49:24.215Z,72
2023-05-01T00:50:30.518Z,71.5
2023-05-01T00:51:36.787Z,72
2023-05-01T00:52:43.119Z,72
2023-05-01T00:53:49.299Z,72
2023-05-01T00:54:54.612Z,72
2023-05-01T00:55:59.906Z,71
2023-05-01T00:57:06.156Z,72
2023-05-01T00:58:12.449Z,72
2023-05-01T00:59:17.727Z,72
2023-05-01T01:00:23.077Z,71.5
2023-05-01T01:01:29.281Z,71.5
2023-05-01T01:02:35.548Z,71.5
2023-05-01T01:03:41.829Z,71.5
2023-05-01T01:04:48.165Z,72.5
2023-05-01T01:05:54.381Z,72
2023-05-01T01:07:00.662Z,72
2023-05-01T01:08:06.921Z,71.5
2023-05-01T01:09:13.208Z,72
2023-05-01T01:10:19.458Z,72.5
2023-05-01T01:11:25.844Z,72
2023-05-01T01:12:32.111Z,71
2023-05-01T01:13:38.290Z,72
2023-05-01T01:14:44.593Z,71.5
2023-05-01T01:15:49.838Z,71
2023-05-01T01:16:56.104Z,72
2023-05-01T01:18:02.379Z,71
2023-05-01T01:19:08.675Z,71
2023-05-01T01:20:14.926Z,71.5
2023-05-01T01:21:21.203Z,71
2023-05-01T01:22:27.457Z,71.5
2023-05-01T01:23:33.748Z,71
2023-05-01T01:24:40.009Z,71.5
2023-05-01T01:25:46.277Z,71.5
2023-05-01T01:26:52.547Z,72
2023-05-01T01:27:58.887Z,71.5
2023-05-01T01:29:05.153Z,71.5
2023-05-01T01:30:10.380Z,71.5
2023-05-01T01:31:16.748Z,71.5
2023-05-01T01:32:22.951Z,71.5
2023-05-01T01:33:29.204Z,71.5
2023-05-01T01:34:35.560Z,73
2023-05-01T01:35:41.743Z,72.5
2023-05-01T01:36:47.089Z,71.5
2023-05-01T01:37:53.302Z,72
2023-05-01T01:38:59.580Z,72
2023-05-01T01:40:05.917Z,71.5
2023-05-01T01:41:12.162Z,72
2023-05-01T01:42:18.470Z,72
2023-05-01T01:43:24.676Z,71.5
2023-05-01T01:44:30.932Z,71.5
2023-05-01T01:45:37.217Z,72.5
2023-05-01T01:46:43.609Z,72
2023-05-01T01:47:49.762Z,72.5
2023-05-01T01:48:56.087Z,73
2023-05-01T01:50:02.290Z,72.5
2023-05-01T01:51:07.621Z,71.5
2023-05-01T01:52:13.907Z,71.5
2023-05-01T01:53:20.141Z,72
2023-05-01T01:54:26.402Z,71.5
2023-05-01T01:55:32.690Z,71.5
2023-05-01T01:56:39.019Z,71
2023-05-01T01:57:45.214Z,71.5
2023-05-01T01:58:51.570Z,72.5
2023-05-01T01:59:57.795Z,72
2023-05-01T02:01:04.128Z,72
2023-05-01T02:02:10.313Z,71
2023-05-01T02:03:16.728Z,71.5
2023-05-01T02:04:22.842Z,71.5
2023-05-01T02:05:29.121Z,71.5
2023-05-01T02:06:34.447Z,71.5
2023-05-01T02:07:40.689Z,72
2023-05-01T02:08:47.082Z,71.5
2023-05-01T02:09:53.236Z,71
2023-05-01T02:10:59.514Z,71.5
2023-05-01T02:12:05.865Z,71.5
2023-05-01T02:13:12.037Z,71
2023-05-01T02:14:18.368Z,71.5
2023-05-01T02:15:24.585Z,71.5
2023-05-01T02:16:30.873Z,71
2023-05-01T02:17:37.144Z,71
2023-05-01T02:18:43.418Z,71.5
2023-05-01T02:19:49.696Z,71
2023-05-01T02:20:54.969Z,71
2023-05-01T02:22:01.234Z,71
2023-05-01T02:23:07.502Z,71
2023-05-01T02:24:13.777Z,71.5
2023-05-01T02:25:20.064Z,70.5
2023-05-01T02:26:26.317Z,70.5
2023-05-01T02:27:32.592Z,70.5
2023-05-01T02:28:38.875Z,70.5
2023-05-01T02:29:45.316Z,70.5
2023-05-01T02:30:51.552Z,70.5
2023-05-01T02:31:57.688Z,70.5
2023-05-01T02:33:03.943Z,71
2023-05-01T02:34:10.235Z,71
2023-05-01T02:35:15.537Z,70.5
2023-05-01T02:36:21.785Z,70.5
2023-05-01T02:37:28.061Z,70.5
2023-05-01T02:38:34.322Z,70.5
2023-05-01T02:39:40.623Z,70.5
2023-05-01T02:40:46.956Z,70.5
2023-05-01T02:41:53.133Z,70.5
2023-05-01T02:42:59.426Z,71.5
2023-05-01T02:44:05.680Z,71.5
2023-05-01T02:45:11.989Z,71
2023-05-01T02:47:24.511Z,71
2023-05-01T02:48:30.853Z,71
2023-05-01T02:49:36.061Z,71
2023-05-01T02:50:42.355Z,71
2023-05-01T02:51:48.608Z,71.5
2023-05-01T02:52:55.012Z,71
2023-05-01T02:54:01.225Z,71
2023-05-01T02:55:07.453Z,71
2023-05-01T02:56:13.857Z,71
2023-05-01T02:57:19.977Z,71
2023-05-01T02:58:26.252Z,71
2023-05-01T02:59:32.515Z,71
2023-05-01T03:00:38.842Z,71.5
2023-05-01T03:01:45.054Z,71
2023-05-01T03:02:51.337Z,71
2023-05-01T03:03:56.618Z,71
2023-05-01T03:05:02.892Z,71
2023-05-01T03:06:09.155Z,71.5
2023-05-01T03:07:15.454Z,71.5
2023-05-01T03:08:21.718Z,71
2023-05-01T03:09:27.987Z,71
2023-05-01T03:10:34.292Z,71
2023-05-01T03:11:40.515Z,71.5
2023-05-01T03:12:46.816Z,71.5
2023-05-01T03:13:53.067Z,71
2023-05-01T03:14:59.342Z,71.5
2023-05-01T03:16:05.616Z,71.5
2023-05-01T03:17:11.871Z,71.5
2023-05-01T03:18:17.205Z,71
2023-05-01T03:19:22.464Z,71.5
2023-05-01T03:20:27.845Z,71.5
2023-05-01T03:21:33.112Z,71
2023-05-01T03:22:38.379Z,71
2023-05-01T03:23:44.672Z,71.5
2023-05-01T03:24:50.900Z,71.5
2023-05-01T03:25:57.159Z,71.5
2023-05-01T03:27:03.424Z,71.5
2023-05-01T03:28:09.699Z,71.5
2023-05-01T03:29:16.006Z,71.5
2023-05-01T03:30:22.267Z,71.5
2023-05-01T03:31:28.504Z,71.5
2023-05-01T03:32:34.796Z,71.5
2023-05-01T03:33:41.054Z,71.5
2023-05-01T03:34:47.323Z,71.5
2023-05-01T03:35:53.591Z,71.5
2023-05-01T03:36:58.882Z,71.5
2023-05-01T03:38:05.191Z,71.5
2023-05-01T03:39:11.457Z,72
2023-05-01T03:40:17.734Z,72
2023-05-01T03:41:24.020Z,72
2023-05-01T03:42:30.256Z,71.5
2023-05-01T03:43:36.574Z,72
2023-05-01T03:44:42.792Z,72
2023-05-01T03:45:49.055Z,72
2023-05-01T03:46:55.340Z,72
2023-05-01T03:48:01.662Z,71.5
2023-05-01T03:49:07.880Z,72
2023-05-01T03:50:14.199Z,72
2023-05-01T03:51:19.484Z,72
2023-05-01T03:52:25.711Z,72
2023-05-01T03:53:32.003Z,72
2023-05-01T03:54:38.265Z,72
2023-05-01T03:55:44.528Z,72.5
2023-05-01T03:56:50.797Z,72
2023-05-01T03:57:57.117Z,72
2023-05-01T03:59:03.521Z,72
2023-05-01T04:00:09.610Z,72.5
2023-05-01T04:01:15.952Z,72
2023-05-01T04:02:22.158Z,72
2023-05-01T04:03:28.441Z,72.5
2023-05-01T04:04:33.761Z,72.5
2023-05-01T04:05:39.085Z,72
2023-05-01T04:06:45.295Z,72
2023-05-01T04:07:50.584Z,72.5
2023-05-01T04:08:55.901Z,72.5
2023-05-01T04:10:02.325Z,72.5
2023-05-01T04:11:08.432Z,72.5
2023-05-01T04:12:14.703Z,72.5
2023-05-01T04:13:20.982Z,72
2023-05-01T04:14:27.238Z,72.5
2023-05-01T04:15:33.588Z,73
2023-05-01T04:16:39.817Z,72.5
2023-05-01T04:17:46.059Z,72
2023-05-01T04:18:52.323Z,72
2023-05-01T04:19:58.608Z,72.5
2023-05-01T04:21:04.951Z,72.5
2023-05-01T04:22:11.138Z,72
2023-05-01T04:23:16.452Z,72
2023-05-01T04:24:22.703Z,72
2023-05-01T04:25:28.967Z,72.5
2023-05-01T04:26:35.239Z,72.5
2023-05-01T04:27:41.522Z,73
2023-05-01T04:28:47.802Z,73
2023-05-01T04:29:54.088Z,73.5
2023-05-01T04:31:00.373Z,74
2023-05-01T04:32:06.609Z,74
2023-05-01T04:33:12.956Z,74.5
2023-05-01T04:34:19.153Z,74.5
2023-05-01T04:35:25.417Z,75
2023-05-01T04:36:31.779Z,75
2023-05-01T04:37:37.065Z,75.5
2023-05-01T04:38:43.284Z,75.5
2023-05-01T04:39:49.587Z,75.5
2023-05-01T04:40:55.881Z,76
2023-05-01T04:42:02.065Z,76.5
2023-05-01T04:43:08.356Z,77
2023-05-01T04:44:14.614Z,76
2023-05-01T04:45:20.884Z,76.5
2023-05-01T04:47:33.488Z,76.5
2023-05-01T04:48:39.758Z,77
2023-05-01T04:49:45.996Z,78
2023-05-01T04:50:52.236Z,77.5
2023-05-01T04:51:57.599Z,78
2023-05-01T04:53:03.818Z,78
2023-05-01T04:54:10.066Z,79
2023-05-01T04:55:16.349Z,78.5
2023-05-01T04:56:22.672Z,79
2023-05-01T04:57:28.884Z,79.5
2023-05-01T04:58:35.155Z,79.5
2023-05-01T04:59:41.590Z,80
2023-05-01T05:00:47.713Z,80.5
2023-05-01T05:01:53.980Z,80.5
2023-05-01T05:03:00.245Z,80
2023-05-01T05:04:06.523Z,80.5
2023-05-01T05:05:12.790Z,80.5
2023-05-01T05:06:18.171Z,80.5
2023-05-01T05:07:24.368Z,81
2023-05-01T05:08:30.625Z,81.5
2023-05-01T05:09:36.886Z,81.5
2023-05-01T05:10:43.160Z,82.5
2023-05-01T05:11:49.451Z,83
2023-05-01T05:12:55.740Z,82.5
2023-05-01T05:14:02.024Z,83
2023-05-01T05:15:08.354Z,83.5
2023-05-01T05:16:14.512Z,84
2023-05-01T05:17:20.787Z,83
2023-05-01T05:18:26.076Z,83.5
2023-05-01T05:19:32.396Z,84
2023-05-01T05:20:38.651Z,84.5
2023-05-01T05:21:44.913Z,85
2023-05-01T05:22:51.165Z,85.5
2023-05-01T05:23:57.440Z,85.5
2023-05-01T05:25:03.714Z,85.5
2023-05-01T05:26:09.980Z,85
2023-05-01T05:27:16.291Z,85.5
2023-05-01T05:28:22.530Z,85
2023-05-01T05:29:28.797Z,86
2023-05-01T05:30:35.078Z,86
2023-05-01T05:31:41.343Z,86.5
2023-05-01T05:32:46.678Z,87
2023-05-01T05:33:52.926Z,86.5
2023-05-01T05:34:59.221Z,87.5
2023-05-01T05:36:05.449Z,88
2023-05-01T05:37:11.731Z,88
2023-05-01T05:38:17.987Z,88.5
2023-05-01T05:39:24.260Z,88.5
2023-05-01T05:40:30.529Z,88
2023-05-01T05:41:36.898Z,88.5
2023-05-01T05:42:43.146Z,88.5
2023-05-01T05:43:49.382Z,88.5
2023-05-01T05:44:55.622Z,88.5
2023-05-01T05:46:01.892Z,89
2023-05-01T05:47:07.182Z,89
2023-05-01T05:48:13.455Z,88.5
2023-05-01T05:49:19.722Z,89
2023-05-01T05:50:25.999Z,89
2023-05-01T05:51:32.271Z,88.5
2023-05-01T05:53:44.811Z,88
2023-05-01T05:54:51.077Z,88
2023-05-01T05:55:57.373Z,87.5
2023-05-01T05:57:03.624Z,87.5
2023-05-01T05:58:09.909Z,88
2023-05-01T05:59:16.177Z,88
2023-05-01T06:00:22.443Z,88
2023-05-01T06:01:27.728Z,88
2023-05-01T06:02:34.053Z,88
2023-05-01T06:03:40.285Z,88
2023-05-01T06:04:46.549Z,88
2023-05-01T06:05:52.820Z,88
2023-05-01T06:06:59.087Z,88
2023-05-01T06:08:05.365Z,88
2023-05-01T06:10:17.954Z,87.5
2023-05-01T06:11:24.203Z,88
2023-05-01T06:12:30.572Z,88
2023-05-01T06:13:36.813Z,88
2023-05-01T06:14:42.995Z,88.5
2023-05-01T06:15:48.286Z,88
2023-05-01T06:16:54.559Z,88
2023-05-01T06:18:00.828Z,88
2023-05-01T06:19:07.098Z,87.5
2023-05-01T06:20:13.474Z,87.5
2023-05-01T06:21:19.649Z,87.5
2023-05-01T06:22:25.915Z,87.5
2023-05-01T06:23:32.240Z,87.5
2023-05-01T06:24:38.453Z,87.5
2023-05-01T06:25:44.734Z,88
2023-05-01T06:26:50.995Z,87.5
2023-05-01T06:27:57.270Z,87.5
2023-05-01T06:29:03.554Z,87.5
2023-05-01T06:30:08.855Z,87
2023-05-01T06:31:15.116Z,87
2023-05-01T06:32:21.481Z,86.5
2023-05-01T06:33:27.693Z,86
2023-05-01T06:34:33.927Z,86
2023-05-01T06:35:40.201Z,86
2023-05-01T06:36:46.487Z,86.5
2023-05-01T06:37:52.725Z,86.5
2023-05-01T06:38:59.000Z,86.5
2023-05-01T06:40:05.349Z,86.5
2023-05-01T06:41:11.540Z,86.5
2023-05-01T06:42:17.824Z,86
2023-05-01T06:43:24.091Z,86
2023-05-01T06:44:29.360Z,86
2023-05-01T06:45:35.646Z,86
2023-05-01T06:46:41.929Z,86
2023-05-01T06:47:47.225Z,86
2023-05-01T06:48:52.520Z,86
2023-05-01T06:49:58.847Z,86
2023-05-01T06:51:05.078Z,86.5
2023-05-01T06:52:10.344Z,86.5
2023-05-01T06:53:15.660Z,86.5
2023-05-01T06:54:21.930Z,86.5
2023-05-01T06:55:28.233Z,86
2023-05-01T06:56:34.453Z,85.5
2023-05-01T06:57:40.765Z,85.5
2023-05-01T06:59:53.257Z,85.5
2023-05-01T07:00:59.560Z,85.5
2023-05-01T07:02:05.836Z,85
2023-05-01T07:03:12.079Z,84.5
2023-05-01T07:04:18.362Z,85
2023-05-01T07:05:24.620Z,85
2023-05-01T07:06:30.906Z,84
2023-05-01T07:07:36.262Z,84.5
2023-05-01T07:08:42.481Z,84.5
2023-05-01T07:09:48.777Z,84
2023-05-01T07:10:55.025Z,84
2023-05-01T07:12:01.411Z,83
2023-05-01T07:13:07.590Z,83.5
2023-05-01T07:14:13.901Z,84
2023-05-01T07:15:20.091Z,84
2023-05-01T07:16:26.365Z,84
2023-05-01T07:17:32.632Z,83.5
2023-05-01T07:18:38.921Z,84
2023-05-01T07:19:45.336Z,83.5
2023-05-01T07:20:51.547Z,84
2023-05-01T07:21:57.749Z,83.5
2023-05-01T07:23:03.041Z,83.5
2023-05-01T07:24:09.283Z,83
2023-05-01T07:25:15.549Z,83
2023-05-01T07:26:21.821Z,83
2023-05-01T07:27:28.099Z,82.5
2023-05-01T07:28:34.371Z,83
2023-05-01T07:29:40.626Z,82.5
2023-05-01T07:30:47.012Z,82.5
2023-05-01T07:31:53.202Z,81.5
2023-05-01T07:32:59.461Z,81.5
2023-05-01T07:34:05.723Z,81
2023-05-01T07:35:12.006Z,81
2023-05-01T07:36:18.283Z,81.5
2023-05-01T07:37:23.573Z,81.5
2023-05-01T07:38:29.824Z,82
2023-05-01T07:39:36.101Z,82
2023-05-01T07:40:42.435Z,82
2023-05-01T07:41:47.747Z,82
2023-05-01T07:42:53.012Z,82
2023-05-01T07:43:58.259Z,81.5
2023-05-01T07:45:03.672Z,81
2023-05-01T07:46:09.840Z,80.5
2023-05-01T07:47:16.087Z,80.5
2023-05-01T07:48:22.374Z,80.5
2023-05-01T07:49:28.677Z,80.5
2023-05-01T07:50:34.922Z,81
2023-05-01T07:51:41.320Z,81
2023-05-01T07:52:47.464Z,79
2023-05-01T07:53:53.800Z,79
2023-05-01T07:54:59.990Z,79.5
2023-05-01T07:56:06.278Z,79.5
2023-05-01T07:57:12.538Z,79.5
2023-05-01T07:58:18.878Z,79
2023-05-01T07:59:24.077Z,80
2023-05-01T08:00:30.357Z,80
2023-05-01T08:01:36.642Z,78.5
2023-05-01T08:02:42.929Z,79
2023-05-01T08:03:49.178Z,78.5
2023-05-01T08:06:01.724Z,79
2023-05-01T08:07:08.027Z,78
2023-05-01T08:08:14.296Z,78
2023-05-01T08:09:20.540Z,78.5
2023-05-01T08:10:26.813Z,78.5
2023-05-01T08:11:33.169Z,77
2023-05-01T08:12:39.371Z,78
2023-05-01T08:13:44.644Z,79.5
2023-05-01T08:14:50.006Z,80
2023-05-01T08:15:55.235Z,80
2023-05-01T08:17:00.530Z,80
2023-05-01T08:18:06.796Z,78.5
2023-05-01T08:19:13.075Z,77.5
2023-05-01T08:20:19.350Z,77.5
2023-05-01T08:21:25.617Z,80
2023-05-01T08:22:31.888Z,78.5
2023-05-01T08:23:38.286Z,79.5
2023-05-01T08:24:44.505Z,78.5
2023-05-01T08:25:50.780Z,79.5
2023-05-01T08:26:56.973Z,76.5
2023-05-01T08:28:03.251Z,77.5
2023-05-01T08:29:09.569Z,77.5
2023-05-01T08:30:15.844Z,77
2023-05-01T08:31:21.089Z,77
2023-05-01T08:32:27.353Z,78.5
2023-05-01T08:33:33.620Z,78.5
2023-05-01T08:34:39.915Z,78
2023-05-01T08:35:46.206Z,78.5
2023-05-01T08:36:52.447Z,78.5
2023-05-01T08:37:58.717Z,79
2023-05-01T08:39:04.989Z,77.5
2023-05-01T08:40:11.303Z,78
2023-05-01T08:41:17.599Z,77.5
2023-05-01T08:42:23.872Z,77
2023-05-01T08:43:30.128Z,78
2023-05-01T08:44:36.336Z,77
2023-05-01T08:45:41.629Z,76.5
2023-05-01T08:46:48.002Z,75.5
2023-05-01T08:47:54.174Z,75
2023-05-01T08:49:00.478Z,76
2023-05-01T08:50:06.793Z,74
2023-05-01T08:51:13.027Z,74.5
2023-05-01T08:52:19.375Z,74.5
2023-05-01T08:53:25.545Z,74
2023-05-01T08:54:31.803Z,73.5
2023-05-01T08:55:38.091Z,73
2023-05-01T08:56:44.348Z,72.5
2023-05-01T08:57:50.642Z,73.5
2023-05-01T08:58:56.904Z,76
2023-05-01T09:00:02.180Z,75.5
2023-05-01T09:01:08.523Z,75.5
2023-05-01T09:02:14.721Z,75.5
2023-05-01T09:03:21.096Z,74
2023-05-01T09:04:27.262Z,74.5
2023-05-01T09:05:33.550Z,73.5
2023-05-01T09:06:39.817Z,73
2023-05-01T09:07:46.088Z,72
2023-05-01T09:08:52.357Z,71.5
2023-05-01T09:09:58.625Z,73
2023-05-01T09:12:11.177Z,73.5
2023-05-01T09:13:17.538Z,71.5
2023-05-01T09:14:22.738Z,71.5
2023-05-01T09:15:29.128Z,71.5
2023-05-01T09:16:35.295Z,72.5
2023-05-01T09:17:41.543Z,73.5
2023-05-01T09:18:47.976Z,72
2023-05-01T09:19:54.110Z,72.5
2023-05-01T09:21:00.464Z,73
2023-05-01T09:22:06.639Z,72
2023-05-01T09:23:12.978Z,73.5
2023-05-01T09:24:19.188Z,73
2023-05-01T09:25:25.468Z,73.5
2023-05-01T09:26:31.742Z,73
2023-05-01T09:27:38.010Z,71.5
2023-05-01T09:28:43.288Z,72
2023-05-01T09:29:49.551Z,72
2023-05-01T09:30:55.838Z,72
2023-05-01T09:32:02.101Z,72
2023-05-01T09:33:08.383Z,71
2023-05-01T09:34:14.654Z,72
2023-05-01T09:35:20.906Z,71.5
2023-05-01T09:36:27.184Z,72.5
2023-05-01T09:37:33.488Z,71
2023-05-01T09:38:39.774Z,71
2023-05-01T09:39:46.175Z,70.5
2023-05-01T09:40:52.271Z,71
2023-05-01T09:41:58.545Z,69.5
2023-05-01T09:43:03.832Z,71
2023-05-01T09:44:10.105Z,70.5
2023-05-01T09:45:16.377Z,71
2023-05-01T09:46:22.656Z,72
2023-05-01T09:47:28.928Z,72
2023-05-01T09:48:35.196Z,71
2023-05-01T09:49:41.468Z,72
2023-05-01T09:50:47.757Z,71
2023-05-01T09:51:54.073Z,71.5
2023-05-01T09:53:00.271Z,70.5
2023-05-01T09:54:06.661Z,71
2023-05-01T09:55:12.837Z,71
2023-05-01T09:56:19.096Z,72
2023-05-01T09:57:24.384Z,72
2023-05-01T09:58:30.729Z,72
2023-05-01T09:59:36.978Z,72
2023-05-01T10:00:43.346Z,71.5
2023-05-01T10:01:49.535Z,71.5
2023-05-01T10:02:55.749Z,72
2023-05-01T10:04:02.013Z,72
2023-05-01T10:05:08.431Z,72
2023-05-01T10:06:14.772Z,72
2023-05-01T10:07:21.041Z,71.5
2023-05-01T10:08:27.302Z,72.5
2023-05-01T10:09:33.580Z,72.5
2023-05-01T10:10:39.832Z,73
2023-05-01T10:11:44.995Z,72.5
2023-05-01T10:12:51.214Z,73
2023-05-01T10:13:57.642Z,72.5
2023-05-01T10:15:03.919Z,72.5
2023-05-01T10:16:10.192Z,73
2023-05-01T10:18:22.790Z,73
2023-05-01T10:19:28.839Z,73
2023-05-01T10:20:35.108Z,72
2023-05-01T10:21:41.397Z,72
2023-05-01T10:22:47.666Z,72
2023-05-01T10:23:54.101Z,71.5
2023-05-01T10:25:00.362Z,71
2023-05-01T10:26:05.495Z,71
2023-05-01T10:27:11.983Z,71
2023-05-01T10:28:18.231Z,71.5
2023-05-01T10:29:24.315Z,71
2023-05-01T10:30:30.738Z,71.5
2023-05-01T10:31:36.979Z,73
2023-05-01T10:32:43.284Z,70.5
2023-05-01T10:33:49.524Z,69.5
2023-05-01T10:34:55.832Z,68.5
2023-05-01T10:36:02.051Z,68.5
2023-05-01T10:37:08.202Z,68.5
2023-05-01T10:38:14.578Z,70
2023-05-01T10:39:20.957Z,69.5
2023-05-01T10:40:26.170Z,68.5
2023-05-01T10:41:32.483Z,67.5
2023-05-01T10:42:38.749Z,67.5
2023-05-01T10:43:45.009Z,68
2023-05-01T10:44:51.276Z,67
2023-05-01T10:45:57.430Z,67
2023-05-01T10:47:03.956Z,68
2023-05-01T10:48:09.996Z,67.5
2023-05-01T10:49:16.332Z,67
2023-05-01T10:50:22.659Z,67.5
2023-05-01T10:51:28.979Z,67.5
2023-05-01T10:52:35.090Z,67
2023-05-01T10:53:41.463Z,68
2023-05-01T10:54:46.719Z,67
2023-05-01T10:55:52.983Z,67.5
2023-05-01T10:56:59.380Z,67
2023-05-01T10:58:05.409Z,67.5
2023-05-01T10:59:11.764Z,69
2023-05-01T11:00:18.002Z,67.5
2023-05-01T11:01:24.270Z,66.5
2023-05-01T11:02:30.579Z,65.5
2023-05-01T11:03:36.762Z,65.5
2023-05-01T11:04:43.120Z,65.5
2023-05-01T11:05:49.301Z,65.5
2023-05-01T11:08:01.876Z,65.5
2023-05-01T11:09:07.221Z,65
2023-05-01T11:10:13.407Z,64
2023-05-01T11:11:19.686Z,65.5
2023-05-01T11:12:26.080Z,64.5
2023-05-01T11:13:32.361Z,63
2023-05-01T11:14:38.492Z,62.5
2023-05-01T11:15:44.945Z,63.5
2023-05-01T11:16:51.199Z,64
2023-05-01T11:17:57.308Z,65.5
2023-05-01T11:19:03.593Z,65.5
2023-05-01T11:20:09.842Z,64.5
2023-05-01T11:21:16.139Z,63
2023-05-01T11:22:22.441Z,63.5
2023-05-01T11:23:27.694Z,62.5
2023-05-01T11:24:33.962Z,62.5
2023-05-01T11:25:40.383Z,61
2023-05-01T11:26:46.635Z,64.5
2023-05-01T11:27:52.770Z,60.5
2023-05-01T11:28:59.060Z,61.5
2023-05-01T11:30:05.311Z,63.5
2023-05-01T11:31:11.595Z,63.5
2023-05-01T11:32:17.913Z,64.5
2023-05-01T11:33:24.147Z,62
2023-05-01T11:34:30.408Z,61
2023-05-01T11:35:36.776Z,62
2023-05-01T11:36:42.952Z,60.5
2023-05-01T11:37:48.238Z,62
2023-05-01T11:38:54.641Z,60
2023-05-01T11:40:00.822Z,60
2023-05-01T11:41:07.201Z,59
2023-05-01T11:42:13.444Z,60.5
2023-05-01T11:43:19.596Z,59
2023-05-01T11:44:25.866Z,57.5
2023-05-01T11:45:32.250Z,57.5
2023-05-01T11:46:38.416Z,59
2023-05-01T11:47:44.682Z,58.5
2023-05-01T11:48:50.953Z,59
2023-05-01T11:49:57.225Z,60
2023-05-01T11:51:02.522Z,60.5
2023-05-01T11:52:07.813Z,60
2023-05-01T11:53:14.079Z,60.5
2023-05-01T11:54:19.458Z,61.5
2023-05-01T11:55:24.667Z,62
2023-05-01T11:56:31.059Z,62
2023-05-01T11:57:37.265Z,61
2023-05-01T11:58:43.484Z,61
2023-05-01T11:59:49.759Z,60
2023-05-01T12:00:56.069Z,59.5
2023-05-01T12:02:02.374Z,59
2023-05-01T12:03:08.576Z,59.5
2023-05-01T12:04:14.904Z,59
2023-05-01T12:05:21.160Z,59
2023-05-01T12:06:27.541Z,59
2023-05-01T12:07:33.725Z,59
2023-05-01T12:08:40.072Z,59.5
2023-05-01T12:09:45.228Z,59.5
2023-05-01T12:10:51.504Z,59.5
2023-05-01T12:11:57.790Z,60
2023-05-01T12:13:04.048Z,60.5
2023-05-01T12:14:10.305Z,60.5
2023-05-01T12:15:16.703Z,60.5
2023-05-01T12:16:22.855Z,60.5
2023-05-01T12:17:28.213Z,60
2023-05-01T12:18:33.484Z,60.5
2023-05-01T12:19:38.804Z,60.5
2023-05-01T12:20:44.028Z,58.5
2023-05-01T12:21:50.446Z,60.5
2023-05-01T12:22:56.567Z,58
2023-05-01T12:24:02.924Z,59.5
2023-05-01T12:25:09.278Z,59
2023-05-01T12:26:15.390Z,59
2023-05-01T12:27:21.661Z,59.5
2023-05-01T12:28:27.964Z,60
2023-05-01T12:29:34.248Z,61.5
2023-05-01T12:30:40.472Z,59
2023-05-01T12:31:46.747Z,59
2023-05-01T12:32:53.080Z,60
2023-05-01T12:33:59.314Z,60
2023-05-01T12:35:04.733Z,59.5
2023-05-01T12:36:10.900Z,60.5
2023-05-01T12:37:17.119Z,61
2023-05-01T12:38:23.421Z,61
2023-05-01T12:39:29.758Z,62.5
2023-05-01T12:40:35.941Z,60.5
2023-05-01T12:41:41.237Z,61
2023-05-01T12:42:47.497Z,60.5
2023-05-01T12:43:53.815Z,61
2023-05-01T12:45:00.050Z,62.5
2023-05-01T12:46:06.368Z,60.5
2023-05-01T12:47:12.603Z,62
2023-05-01T12:48:18.887Z,62.5
2023-05-01T12:49:24.276Z,63.5
2023-05-01T12:50:29.576Z,64
2023-05-01T12:51:35.744Z,64
2023-05-01T12:52:41.993Z,65.5
2023-05-01T12:53:47.413Z,65
2023-05-01T12:54:52.693Z,64
2023-05-01T12:55:58.928Z,63.5
2023-05-01T12:57:05.148Z,64
2023-05-01T12:58:11.414Z,63.5
2023-05-01T12:59:17.798Z,63.5
2023-05-01T13:00:23.969Z,64
2023-05-01T13:01:30.252Z,63.5
2023-05-01T13:02:36.506Z,64
2023-05-01T13:03:42.765Z,62
2023-05-01T13:04:49.036Z,62.5
2023-05-01T13:05:55.314Z,62.5
2023-05-01T13:07:01.595Z,60.5
2023-05-01T13:08:07.837Z,60.5
2023-05-01T13:09:13.123Z,60.5
2023-05-01T13:10:19.406Z,61
2023-05-01T13:11:25.722Z,60
2023-05-01T13:12:32.028Z,59.5
2023-05-01T13:13:38.215Z,63
2023-05-01T13:14:44.547Z,61
2023-05-01T13:15:50.759Z,61
2023-05-01T13:16:57.029Z,59.5
2023-05-01T13:18:03.313Z,60.5
2023-05-01T13:19:09.628Z,59.5
2023-05-01T13:20:15.845Z,59
2023-05-01T13:21:22.123Z,58.5
2023-05-01T13:22:28.470Z,58
2023-05-01T13:23:33.704Z,58.5
2023-05-01T13:24:38.978Z,60
2023-05-01T13:25:44.272Z,60.5
2023-05-01T13:26:49.749Z,58
2023-05-01T13:27:54.910Z,58
2023-05-01T13:29:01.168Z,59
2023-05-01T13:30:07.435Z,58.5
2023-05-01T13:31:13.718Z,58.5
2023-05-01T13:32:19.937Z,59
2023-05-01T13:33:26.240Z,59.5
2023-05-01T13:34:32.480Z,59
2023-05-01T13:35:38.859Z,58.5
2023-05-01T13:36:45.034Z,59.5
2023-05-01T13:37:51.296Z,60
2023-05-01T13:38:57.576Z,60
2023-05-01T13:40:03.980Z,61
2023-05-01T13:41:10.136Z,61.5
2023-05-01T13:42:15.392Z,62
2023-05-01T13:43:21.668Z,62
2023-05-01T13:44:27.944Z,62.5
2023-05-01T13:45:34.285Z,62.5
2023-05-01T13:46:40.483Z,63.5
2023-05-01T13:47:46.768Z,63.5
2023-05-01T13:48:53.133Z,63.5
2023-05-01T13:49:58.471Z,62
2023-05-01T13:51:03.622Z,62.5
2023-05-01T13:52:09.939Z,63
2023-05-01T13:53:16.159Z,63.5
2023-05-01T13:54:21.643Z,63.5
2023-05-01T13:55:26.835Z,63.5
2023-05-01T13:56:33.064Z,63
2023-05-01T13:57:39.396Z,63.5
2023-05-01T13:58:45.598Z,62.5
2023-05-01T13:59:51.833Z,63
2023-05-01T14:00:58.096Z,64
2023-05-01T14:02:04.372Z,63.5
2023-05-01T14:03:10.642Z,63
2023-05-01T14:04:16.934Z,62.5
2023-05-01T14:05:23.179Z,62.5
2023-05-01T14:06:29.561Z,62.5
2023-05-01T14:07:35.847Z,63
2023-05-01T14:08:42.015Z,63.5
2023-05-01T14:09:47.310Z,64
2023-05-01T14:10:53.608Z,64.5
2023-05-01T14:11:59.837Z,64.5
2023-05-01T14:13:06.231Z,64.5
2023-05-01T14:14:12.394Z,64.5
2023-05-01T14:15:18.654Z,65.5
2023-05-01T14:16:24.934Z,66.5
2023-05-01T14:17:30.230Z,68
2023-05-01T14:18:36.533Z,71.5
2023-05-01T14:19:41.792Z,73
2023-05-01T14:20:48.056Z,74.5
2023-05-01T14:21:54.410Z,74
2023-05-01T14:22:59.625Z,75.5
2023-05-01T14:24:04.949Z,76
2023-05-01T14:25:11.292Z,75.5
2023-05-01T14:26:17.518Z,74
2023-05-01T14:27:23.888Z,76
2023-05-01T14:28:30.059Z,71.5
2023-05-01T14:29:36.270Z,72.5
2023-05-01T14:30:42.540Z,73
2023-05-01T14:31:48.883Z,72
2023-05-01T14:32:55.091Z,72
2023-05-01T14:34:01.412Z,74
2023-05-01T14:35:07.854Z,71.5
2023-05-01T14:36:14.012Z,73.5
2023-05-01T14:37:20.172Z,73
2023-05-01T14:38:25.460Z,74.5
2023-05-01T14:39:31.741Z,69
2023-05-01T14:40:38.000Z,68.5
2023-05-01T14:41:44.345Z,67
2023-05-01T14:42:50.599Z,67.5
2023-05-01T14:43:56.813Z,71
2023-05-01T14:45:03.184Z,65.5
2023-05-01T14:46:08.506Z,66.5
2023-05-01T14:47:13.690Z,69
2023-05-01T14:48:19.960Z,69
2023-05-01T14:49:25.323Z,65
2023-05-01T14:50:30.540Z,67.5
2023-05-01T14:51:36.859Z,64.5
2023-05-01T14:52:43.087Z,64
2023-05-01T14:53:49.409Z,63.5
2023-05-01T14:54:55.746Z,68
2023-05-01T14:56:01.940Z,67
2023-05-01T14:57:08.192Z,65.5
2023-05-01T14:58:14.500Z,65.5
2023-05-01T14:59:20.817Z,64.5
2023-05-01T15:00:26.992Z,64
2023-05-01T15:01:33.291Z,64
2023-05-01T15:02:39.535Z,63.5
2023-05-01T15:03:45.811Z,63
2023-05-01T15:04:51.217Z,63.5
2023-05-01T15:05:57.411Z,63
2023-05-01T15:07:03.728Z,63
2023-05-01T15:08:09.915Z,63.5
2023-05-01T15:09:16.250Z,63.5
2023-05-01T15:10:22.455Z,64.5
2023-05-01T15:11:28.751Z,68
2023-05-01T15:12:34.069Z,65.5
2023-05-01T15:13:39.369Z,66.5
2023-05-01T15:14:44.763Z,68.5
2023-05-01T15:15:49.904Z,67.5
2023-05-01T15:16:56.326Z,68
2023-05-01T15:18:02.451Z,70
2023-05-01T15:19:08.753Z,76
2023-05-01T15:20:14.990Z,77.5